Time;durP1;ratioP1;P1;durP2;ratioP2;P2;SDS_P1;SDS_P2;PMS_P1;PMS_P2;Temp;Humidity;BMP_temperature;BMP_pressure;BME280_temperature;BME280_humidity;BME280_pressure;Samples;Min_cycle;Max_cycle;Signal;HPM_P1;HPM_P2
2022/11/25 00:01:31;;;;;;;21.38;5.38;;;;;;;7.90;80.34;99409.56;5040536;28;20111;-86
2022/11/25 00:03:57;;;;;;;7.28;1.80;;;;;;;7.88;80.03;99406.28;5041496;28;20466;-86
2022/11/25 00:06:28;;;;;;;18.55;3.17;;;;;;;7.80;80.70;99408.41;5038895;28;20351;-86
2022/11/25 00:08:56;;;;;;;9.18;2.63;;;;;;;7.73;80.87;99409.69;5041297;28;20032;-86
2022/11/25 00:11:22;;;;;;;9.57;2.65;;;;;;;7.89;80.59;99394.38;5040965;28;20025;-85
2022/11/25 00:13:48;;;;;;;10.43;3.47;;;;;;;7.90;80.35;99401.44;5042024;28;20041;-86
2022/11/25 00:16:15;;;;;;;8.63;1.70;;;;;;;7.90;80.57;99396.00;5042084;28;20114;-85
2022/11/25 00:18:52;;;;;;;9.43;2.17;;;;;;;7.96;80.64;99397.69;5046823;28;20025;-86
2022/11/25 00:21:22;;;;;;;6.18;1.60;;;;;;;7.98;80.33;99381.97;5042128;28;20018;-86
2022/11/25 00:23:58;;;;;;;11.48;3.15;;;;;;;8.00;80.33;99385.25;5051606;28;20033;-86
2022/11/25 00:26:26;;;;;;;9.02;3.03;;;;;;;7.97;80.70;99374.09;5040675;28;20025;-85
2022/11/25 00:28:53;;;;;;;8.60;1.95;;;;;;;7.99;80.20;99367.34;5040864;28;20036;-86
2022/11/25 00:31:21;;;;;;;8.50;2.45;;;;;;;7.97;80.65;99374.91;5045166;28;20156;-85
2022/11/25 00:33:48;;;;;;;9.02;2.88;;;;;;;7.89;81.19;99375.38;5038453;28;20029;-86
2022/11/25 00:36:25;;;;;;;7.00;2.10;;;;;;;7.94;80.73;99380.84;5041229;28;20033;-86
2022/11/25 00:38:59;;;;;;;10.55;4.00;;;;;;;7.95;80.78;99377.06;5043387;28;20526;-88
2022/11/25 00:46:57;;;;;;;11.10;2.40;;;;;;;7.95;80.90;99360.78;5043660;28;20533;-84
2022/11/25 00:49:23;;;;;;;8.23;2.20;;;;;;;7.84;81.38;99362.56;5046274;28;20028;-84
2022/11/25 00:51:48;;;;;;;9.98;2.20;;;;;;;7.87;81.69;99369.38;5042184;28;20057;-84
2022/11/25 00:54:13;;;;;;;7.63;3.28;;;;;;;7.95;81.63;99371.63;5038914;28;20470;-84
2022/11/25 00:56:39;;;;;;;9.10;2.67;;;;;;;7.98;81.46;99371.09;5043215;28;20056;-84
2022/11/25 00:59:05;;;;;;;11.32;3.88;;;;;;;7.90;81.55;99366.13;5042614;28;20246;-85
2022/11/25 01:01:30;;;;;;;8.88;3.40;;;;;;;7.93;81.49;99374.59;5041632;28;20030;-84
2022/11/25 01:03:55;;;;;;;13.40;2.60;;;;;;;7.97;81.34;99377.63;5043328;28;20045;-84
2022/11/25 01:06:21;;;;;;;7.23;2.03;;;;;;;8.00;81.49;99368.97;5040840;28;20742;-84
2022/11/25 01:08:46;;;;;;;12.20;3.42;;;;;;;7.85;81.91;99361.47;5042380;28;20269;-84
2022/11/25 01:11:15;;;;;;;18.77;3.97;;;;;;;7.83;82.41;99369.09;5039403;28;20053;-85
2022/11/25 01:13:41;;;;;;;13.50;2.03;;;;;;;7.94;81.79;99359.13;5046566;28;20337;-85
2022/11/25 01:16:10;;;;;;;14.30;3.03;;;;;;;7.91;81.95;99363.16;5042939;28;20120;-85
2022/11/25 01:18:35;;;;;;;7.47;1.75;;;;;;;7.92;82.36;99370.25;5043024;28;20083;-87
2022/11/25 01:21:08;;;;;;;8.30;2.72;;;;;;;7.87;82.48;99375.59;5043346;28;20033;-87
2022/11/25 01:23:34;;;;;;;9.53;2.63;;;;;;;7.85;82.35;99375.03;5041679;28;20029;-86
2022/11/25 01:26:04;;;;;;;13.02;2.35;;;;;;;7.87;83.04;99369.38;5043198;28;20032;-86
2022/11/25 01:28:30;;;;;;;9.75;2.75;;;;;;;7.85;82.93;99371.53;5044604;28;20048;-85
2022/11/25 01:31:04;;;;;;;8.68;2.72;;;;;;;7.85;82.63;99374.25;5041955;28;20033;-85
2022/11/25 01:33:33;;;;;;;9.52;2.97;;;;;;;7.87;82.87;99369.38;5044876;28;20087;-85
2022/11/25 01:36:07;;;;;;;14.93;4.90;;;;;;;7.91;82.82;99370.50;5042124;28;20033;-85
2022/11/25 01:38:33;;;;;;;;;;;;;;;7.82;83.18;99370.97;5043497;28;20438;-86
2022/11/25 01:40:59;;;;;;;9.45;2.08;;;;;;;7.93;82.72;99361.00;5042308;28;19927;-87
2022/11/25 01:43:25;;;;;;;6.40;2.00;;;;;;;7.89;82.95;99370.75;5040385;28;20041;-86
2022/11/25 01:45:53;;;;;;;12.30;2.65;;;;;;;7.91;82.85;99363.16;5042285;28;20079;-86
2022/11/25 01:48:27;;;;;;;8.57;2.08;;;;;;;7.85;82.69;99358.75;5040531;28;20028;-86
2022/11/25 01:50:53;;;;;;;10.50;3.13;;;;;;;7.79;83.23;99374.19;5041130;28;20521;-85
2022/11/25 01:53:20;;;;;;;19.00;4.10;;;;;;;7.80;83.16;99362.25;5041412;28;20087;-86
2022/11/25 01:55:55;;;;;;;10.27;2.30;;;;;;;7.86;82.93;99363.13;5039817;28;20025;-86
2022/11/25 01:58:28;;;;;;;11.18;2.85;;;;;;;7.83;82.99;99366.38;5040452;28;20025;-85
2022/11/25 02:00:53;;;;;;;7.38;2.13;;;;;;;7.79;83.28;99367.97;5044048;28;20159;-86
2022/11/25 02:03:28;;;;;;;26.67;3.25;;;;;;;7.77;83.21;99359.25;5042486;28;20124;-87
2022/11/25 02:06:02;;;;;;;7.43;3.00;;;;;;;7.78;83.43;99355.44;5043459;28;20483;-87
2022/11/25 02:08:28;;;;;;;7.30;2.65;;;;;;;7.81;83.35;99355.75;5039803;28;20037;-86
2022/11/25 02:10:54;;;;;;;8.50;2.70;;;;;;;7.81;83.36;99353.03;5040740;28;20043;-85
2022/11/25 02:13:22;;;;;;;10.90;2.25;;;;;;;7.72;83.61;99349.16;5040861;28;20036;-87
2022/11/25 02:15:48;;;;;;;8.68;2.83;;;;;;;7.88;83.10;99357.44;5041696;28;20028;-86
2022/11/25 02:18:13;;;;;;;10.23;2.75;;;;;;;7.71;83.88;99352.94;5042971;28;20021;-86
2022/11/25 02:20:39;;;;;;;7.00;2.28;;;;;;;7.80;83.90;99342.44;5040416;28;20283;-86
2022/11/25 02:23:38;;;;;;;15.05;3.53;;;;;;;7.79;83.75;99352.47;5041374;28;20029;-86
2022/11/25 02:26:03;;;;;;;38.85;3.92;;;;;;;7.80;84.19;99345.16;5041521;28;20036;-85
2022/11/25 02:28:31;;;;;;;14.55;2.90;;;;;;;7.86;83.88;99335.97;5042513;28;20064;-86
2022/11/25 02:30:57;;;;;;;8.88;3.22;;;;;;;7.87;83.94;99342.25;5039694;28;20033;-85
2022/11/25 02:33:23;;;;;;;6.32;2.28;;;;;;;7.87;84.07;99339.53;5039025;28;20037;-85
2022/11/25 02:35:51;;;;;;;14.98;4.38;;;;;;;7.76;84.32;99342.13;5041581;28;20321;-85
2022/11/25 02:38:39;;;;;;;14.85;3.30;;;;;;;7.79;84.61;99340.81;5040212;28;20029;-86
2022/11/25 02:41:45;;;;;;;7.32;2.15;;;;;;;7.78;84.53;99329.13;5041850;28;20029;-85
2022/11/25 02:44:10;;;;;;;7.68;2.72;;;;;;;7.85;84.56;99338.97;5040998;28;20041;-85
2022/11/25 02:46:36;;;;;;;8.80;2.80;;;;;;;7.86;84.40;99340.59;5050725;28;20055;-85
2022/11/25 02:49:02;;;;;;;9.63;2.70;;;;;;;7.86;84.52;99330.56;5049546;28;20029;-86
2022/11/25 02:51:30;;;;;;;7.78;3.42;;;;;;;7.83;84.51;99326.44;5050335;28;20060;-85
2022/11/25 02:53:56;;;;;;;16.70;4.13;;;;;;;7.83;84.09;99331.88;5050279;28;20048;-85
2022/11/25 02:56:24;;;;;;;6.10;2.55;;;;;;;7.95;84.14;99328.19;5050039;28;20048;-85
2022/11/25 02:58:49;;;;;;;7.57;2.63;;;;;;;7.93;84.26;99324.94;5050309;28;20474;-85
2022/11/25 03:01:15;;;;;;;20.55;4.68;;;;;;;8.00;84.59;99336.38;5050742;28;20029;-86
2022/11/25 03:03:40;;;;;;;6.22;2.58;;;;;;;7.89;84.59;99330.03;5050745;28;20040;-87
2022/11/25 03:06:06;;;;;;;4.70;2.70;;;;;;;7.93;84.77;99327.63;5049840;28;20029;-85
2022/11/25 03:08:31;;;;;;;9.40;4.05;;;;;;;7.96;84.57;99329.81;5050200;28;20285;-85
2022/11/25 03:10:57;;;;;;;12.15;3.63;;;;;;;7.99;84.43;99323.91;5050039;28;20072;-85
2022/11/25 03:13:22;;;;;;;10.30;2.63;;;;;;;7.99;84.23;99317.63;5049892;28;20459;-85
2022/11/25 03:15:47;;;;;;;5.55;2.13;;;;;;;7.93;84.39;99319.50;5050473;28;20270;-85
2022/11/25 03:18:13;;;;;;;7.88;3.05;;;;;;;8.04;84.19;99326.66;5049681;28;20072;-86
2022/11/25 03:20:39;;;;;;;7.65;2.75;;;;;;;8.13;83.63;99331.59;5050541;28;20044;-85
2022/11/25 03:23:05;;;;;;;8.65;2.85;;;;;;;8.11;83.91;99337.31;5049791;28;20079;-85
2022/11/25 03:25:31;;;;;;;13.85;3.72;;;;;;;8.16;83.77;99337.31;5050274;28;20028;-85
2022/11/25 03:27:56;;;;;;;10.07;3.72;;;;;;;8.14;83.72;99334.06;5050323;28;20051;-86
2022/11/25 03:30:25;;;;;;;13.43;3.58;;;;;;;8.13;83.72;99339.75;5049908;28;20037;-85
2022/11/25 03:32:50;;;;;;;10.77;2.80;;;;;;;8.17;83.55;99340.88;5043567;28;20026;-86
2022/11/25 03:35:16;;;;;;;8.00;2.60;;;;;;;8.15;83.54;99338.41;5030206;28;20124;-85
2022/11/25 03:37:42;;;;;;;11.18;2.50;;;;;;;8.17;83.34;99346.31;5030263;28;20048;-85
2022/11/25 03:40:09;;;;;;;8.18;2.10;;;;;;;8.18;83.22;99364.22;5030900;28;20124;-86
2022/11/25 03:42:35;;;;;;;13.73;3.55;;;;;;;8.20;83.39;99355.84;5034339;28;20120;-86
2022/11/25 03:45:01;;;;;;;10.65;2.17;;;;;;;8.22;83.39;99354.47;5049886;28;20033;-86
2022/11/25 03:47:26;;;;;;;10.25;2.55;;;;;;;8.14;83.32;99352.22;5052966;28;20033;-85
2022/11/25 03:49:51;;;;;;;10.95;2.95;;;;;;;8.27;83.33;99357.25;5053432;28;20434;-85
2022/11/25 03:52:17;;;;;;;10.93;3.00;;;;;;;8.34;83.22;99358.94;5053848;28;20029;-84
2022/11/25 03:54:43;;;;;;;5.60;2.20;;;;;;;8.27;83.48;99367.28;5053888;28;20060;-85
2022/11/25 03:57:08;;;;;;;12.85;3.72;;;;;;;8.31;83.34;99362.16;5054038;28;20111;-85
2022/11/25 03:59:33;;;;;;;6.72;3.13;;;;;;;8.32;83.88;99364.59;5053939;28;20041;-85
2022/11/25 04:01:58;;;;;;;7.83;2.73;;;;;;;8.37;84.09;99363.84;5052800;28;20413;-85
2022/11/25 04:04:24;;;;;;;8.40;3.07;;;;;;;8.33;84.37;99365.44;5051913;28;20265;-85
2022/11/25 04:06:49;;;;;;;14.38;5.00;;;;;;;8.38;84.11;99365.47;5053309;28;20265;-85
2022/11/25 04:09:15;;;;;;;13.88;3.58;;;;;;;8.40;83.98;99371.47;5053211;28;20420;-85
2022/11/25 04:14:24;;;;;;;6.95;1.58;;;;;;;8.41;83.81;99362.22;5053661;28;20052;-85
2022/11/25 04:16:49;;;;;;;13.27;4.40;;;;;;;8.37;84.01;99361.94;5053600;28;20036;-85
2022/11/25 04:19:15;;;;;;;6.63;2.30;;;;;;;8.38;83.89;99379.06;5052216;28;20269;-85
2022/11/25 04:21:40;;;;;;;11.47;3.43;;;;;;;8.41;84.03;99383.97;5053291;28;20028;-85
2022/11/25 04:24:06;;;;;;;12.80;2.40;;;;;;;8.51;83.86;99381.34;5051486;28;20285;-85
2022/11/25 04:26:31;;;;;;;8.65;2.72;;;;;;;8.37;84.39;99393.72;5053190;28;20262;-85
2022/11/25 04:28:56;;;;;;;9.48;2.25;;;;;;;8.32;84.75;99402.63;5053326;28;20029;-85
2022/11/25 04:31:22;;;;;;;10.10;2.80;;;;;;;8.28;85.70;99396.91;5052791;28;20043;-85
2022/11/25 04:33:47;;;;;;;6.05;2.40;;;;;;;8.23;86.82;99409.63;5038123;28;20135;-84
2022/11/25 04:36:12;;;;;;;6.43;2.17;;;;;;;8.20;88.46;99419.09;5033068;28;20036;-85
2022/11/25 04:38:37;;;;;;;11.35;2.72;;;;;;;8.16;89.06;99421.50;5033315;28;20300;-85
2022/11/25 04:41:03;;;;;;;19.37;4.00;;;;;;;8.08;90.10;99413.81;5033163;28;20041;-85
2022/11/25 04:43:28;;;;;;;8.93;2.38;;;;;;;8.04;90.99;99418.94;5032835;28;20342;-85
2022/11/25 04:45:53;;;;;;;16.77;4.43;;;;;;;8.00;91.32;99425.97;5032672;28;20501;-85
2022/11/25 04:48:19;;;;;;;9.10;2.90;;;;;;;7.95;91.44;99425.94;5038814;28;20269;-84
2022/11/25 04:50:44;;;;;;;10.85;2.70;;;;;;;8.03;91.79;99422.72;5052828;28;20032;-86
2022/11/25 04:53:10;;;;;;;8.73;4.28;;;;;;;7.99;91.89;99416.19;5051738;28;20043;-86
2022/11/25 04:55:35;;;;;;;14.43;4.25;;;;;;;7.99;91.89;99416.19;5052349;28;20033;-85
2022/11/25 04:58:00;;;;;;;7.05;2.45;;;;;;;7.99;91.80;99429.78;5051510;28;20024;-85
2022/11/25 05:00:26;;;;;;;10.75;3.67;;;;;;;8.02;91.72;99428.41;5051673;28;20122;-85
2022/11/25 05:02:52;;;;;;;6.90;3.45;;;;;;;8.06;91.68;99422.22;5052918;28;20021;-85
2022/11/25 05:05:17;;;;;;;8.02;2.22;;;;;;;8.05;91.83;99425.22;5052709;28;20453;-85
2022/11/25 05:07:43;;;;;;;10.93;2.58;;;;;;;7.98;91.92;99430.84;5052032;28;20041;-86
2022/11/25 05:10:08;;;;;;;9.32;2.90;;;;;;;7.97;91.90;99426.50;5052172;28;20506;-86
2022/11/25 05:12:34;;;;;;;6.05;2.85;;;;;;;8.09;91.87;99441.81;5047327;28;20060;-85
2022/11/25 05:14:59;;;;;;;8.27;3.85;;;;;;;7.99;90.87;99442.53;5032548;28;20058;-85
2022/11/25 05:17:28;;;;;;;7.15;2.70;;;;;;;8.03;91.04;99436.31;5032336;28;20052;-85
2022/11/25 05:19:54;;;;;;;12.80;3.15;;;;;;;8.00;91.47;99442.25;5051384;28;20043;-85
2022/11/25 05:22:22;;;;;;;8.05;3.95;;;;;;;7.96;91.35;99454.69;5049786;28;20112;-85
2022/11/25 05:24:47;;;;;;;10.52;3.08;;;;;;;8.02;90.77;99442.81;5032313;28;20033;-86
2022/11/25 05:27:13;;;;;;;11.38;4.35;;;;;;;8.05;90.97;99441.50;5032397;28;20037;-86
2022/11/25 05:29:38;;;;;;;8.40;2.60;;;;;;;7.98;91.02;99455.28;5032239;28;20128;-85
2022/11/25 05:32:04;;;;;;;5.88;2.50;;;;;;;7.99;91.29;99442.53;5032010;28;20025;-86
2022/11/25 05:34:30;;;;;;;11.70;3.22;;;;;;;7.93;91.14;99439.75;5032047;28;20120;-85
2022/11/25 05:36:55;;;;;;;8.43;2.97;;;;;;;7.98;91.06;99440.88;5031805;28;20125;-86
2022/11/25 05:39:21;;;;;;;6.03;2.40;;;;;;;8.00;90.96;99447.69;5032343;28;20537;-85
2022/11/25 05:41:46;;;;;;;37.42;2.80;;;;;;;7.96;90.78;99452.00;5031727;28;20442;-86
2022/11/25 05:44:12;;;;;;;10.27;2.85;;;;;;;7.94;91.12;99451.41;5049651;28;20024;-85
2022/11/25 05:46:37;;;;;;;9.55;3.13;;;;;;;7.97;91.10;99455.53;5051536;28;20033;-86
2022/11/25 05:49:02;;;;;;;12.15;3.03;;;;;;;7.75;91.86;99449.03;5051652;28;20098;-84
2022/11/25 05:51:28;;;;;;;8.70;2.67;;;;;;;7.92;91.42;99465.25;5051830;28;20462;-86
2022/11/25 05:53:54;;;;;;;10.70;3.13;;;;;;;7.92;91.37;99462.53;5049674;28;20286;-85
2022/11/25 05:56:19;;;;;;;9.57;3.25;;;;;;;7.97;91.19;99461.78;5051963;28;20063;-86
2022/11/25 05:58:45;;;;;;;9.80;3.90;;;;;;;7.99;91.02;99467.78;5051745;28;20040;-85
2022/11/25 06:01:13;;;;;;;10.82;2.67;;;;;;;7.97;91.09;99472.66;5051035;28;20442;-85
2022/11/25 06:03:39;;;;;;;12.88;4.03;;;;;;;7.97;90.90;99469.94;5051212;28;20036;-86
2022/11/25 06:06:05;;;;;;;7.30;2.17;;;;;;;8.01;91.43;99476.50;5050998;28;20531;-86
2022/11/25 06:08:30;;;;;;;10.40;4.57;;;;;;;7.97;91.51;99475.38;5051510;28;20725;-86
2022/11/25 06:10:56;;;;;;;8.50;3.40;;;;;;;7.86;92.13;99477.13;5051576;28;20153;-85
2022/11/25 06:13:22;;;;;;;12.35;4.15;;;;;;;7.88;92.75;99483.13;5051013;28;20476;-86
2022/11/25 06:15:47;;;;;;;13.05;3.47;;;;;;;7.81;92.67;99486.03;5050471;28;20024;-85
2022/11/25 06:18:14;;;;;;;10.95;2.53;;;;;;;7.93;92.29;99485.09;5049132;28;20673;-86
2022/11/25 06:20:40;;;;;;;6.85;2.55;;;;;;;7.93;92.47;99491.31;5051071;28;20029;-85
2022/11/25 06:23:06;;;;;;;12.75;4.80;;;;;;;7.87;92.65;99494.25;5041808;28;20120;-86
2022/11/25 06:25:32;;;;;;;6.72;2.65;;;;;;;7.91;92.52;99498.09;5031440;28;20422;-86
2022/11/25 06:27:58;;;;;;;13.85;2.47;;;;;;;7.97;92.79;99488.09;5031048;28;20029;-85
2022/11/25 06:30:24;;;;;;;16.65;3.08;;;;;;;7.79;94.31;99477.31;5029966;28;20021;-86
2022/11/25 06:32:49;;;;;;;7.30;3.20;;;;;;;7.74;94.78;99488.13;5030560;28;20029;-86
2022/11/25 06:35:15;;;;;;;9.68;3.33;;;;;;;7.75;94.63;99487.03;5030891;28;20052;-85
2022/11/25 06:37:40;;;;;;;13.93;4.63;;;;;;;7.83;93.84;99502.88;5031064;28;20039;-85
2022/11/25 06:40:07;;;;;;;9.18;3.22;;;;;;;7.66;94.12;99516.53;5031135;28;20453;-85
2022/11/25 06:42:32;;;;;;;12.23;2.92;;;;;;;7.79;94.30;99514.50;5030820;28;20060;-85
2022/11/25 06:44:57;;;;;;;14.18;3.85;;;;;;;7.89;93.49;99516.53;5030794;28;20053;-85
2022/11/25 06:47:23;;;;;;;10.60;3.37;;;;;;;7.87;93.92;99527.63;5030456;28;20053;-85
2022/11/25 06:49:48;;;;;;;7.43;2.40;;;;;;;7.88;93.96;99531.16;5048284;28;20750;-86
2022/11/25 06:52:13;;;;;;;9.80;2.50;;;;;;;7.85;93.88;99527.03;5049388;28;20051;-86
2022/11/25 06:54:40;;;;;;;6.47;3.05;;;;;;;7.81;94.33;99529.44;5050291;28;20043;-85
2022/11/25 06:57:06;;;;;;;7.55;3.08;;;;;;;7.77;94.64;99528.31;5050842;28;20028;-85
2022/11/25 06:59:32;;;;;;;8.13;3.83;;;;;;;7.77;94.24;99530.22;5049232;28;20029;-87
2022/11/25 07:01:57;;;;;;;9.85;2.90;;;;;;;7.83;94.22;99538.16;5050661;28;20083;-86
2022/11/25 07:04:22;;;;;;;10.13;3.00;;;;;;;7.90;93.79;99537.16;5050045;28;20487;-86
2022/11/25 07:06:48;;;;;;;6.10;4.13;;;;;;;7.76;94.66;99542.97;5049915;28;20250;-85
2022/11/25 07:09:14;;;;;;;8.10;2.40;;;;;;;7.68;94.87;99548.81;5050085;28;20265;-85
2022/11/25 07:11:39;;;;;;;8.13;2.67;;;;;;;7.83;94.51;99551.72;5050231;28;20083;-85
2022/11/25 07:14:08;;;;;;;7.95;2.78;;;;;;;7.90;93.78;99548.00;5049580;28;20688;-85
2022/11/25 07:16:35;;;;;;;10.32;3.17;;;;;;;7.88;93.97;99553.69;5050232;28;20047;-85
2022/11/25 07:19:01;;;;;;;7.28;3.10;;;;;;;7.81;94.29;99556.59;5048431;28;20087;-86
2022/11/25 07:21:29;;;;;;;16.00;2.97;;;;;;;7.81;94.30;99562.03;5050907;28;20028;-86
2022/11/25 07:23:54;;;;;;;6.55;2.55;;;;;;;7.81;94.78;99564.72;5034252;28;20055;-85
2022/11/25 07:26:23;;;;;;;6.32;3.00;;;;;;;7.92;94.03;99567.59;5030360;28;20029;-86
2022/11/25 07:28:50;;;;;;;7.15;2.65;;;;;;;7.87;94.09;99572.97;5029913;28;20041;-85
2022/11/25 07:31:18;;;;;;;6.68;2.45;;;;;;;8.03;93.59;99563.91;5038619;28;20028;-85
2022/11/25 07:33:44;;;;;;;8.35;2.53;;;;;;;7.93;93.33;99564.59;5040781;28;20037;-85
2022/11/25 07:36:11;;;;;;;12.00;2.85;;;;;;;7.91;93.82;99576.81;5037316;28;20041;-87
2022/11/25 07:38:38;;;;;;;8.98;2.40;;;;;;;8.04;93.53;99581.03;5030022;28;20168;-86
2022/11/25 07:41:19;;;;;;;5.95;2.30;;;;;;;8.09;93.39;99589.25;5035162;28;20037;-86
2022/11/25 07:43:45;;;;;;;5.20;2.58;;;;;;;8.08;93.49;99589.50;5043958;28;20137;-86
2022/11/25 07:46:20;;;;;;;10.25;2.53;;;;;;;8.13;92.88;99589.56;5039351;28;20044;-85
2022/11/25 07:48:47;;;;;;;6.75;2.03;;;;;;;8.01;93.67;99597.84;5039867;28;20029;-85
2022/11/25 07:51:13;;;;;;;8.45;3.63;;;;;;;8.18;93.21;99595.06;5050102;28;20032;-87
2022/11/25 07:53:38;;;;;;;7.85;2.90;;;;;;;8.11;93.15;99605.28;5035931;28;20037;-86
2022/11/25 07:56:04;;;;;;;8.40;3.23;;;;;;;8.16;93.14;99600.75;5029686;28;20364;-86
2022/11/25 07:58:29;;;;;;;6.38;2.45;;;;;;;8.16;93.37;99606.16;5029850;28;20300;-86
2022/11/25 08:00:55;;;;;;;12.00;3.97;;;;;;;8.21;92.73;99602.72;5030001;28;20049;-85
2022/11/25 08:03:20;;;;;;;10.82;3.30;;;;;;;8.26;92.70;99608.19;5055546;28;20669;-86
2022/11/25 08:05:45;;;;;;;5.43;3.03;;;;;;;8.20;92.34;99616.56;5049942;28;20040;-86
2022/11/25 08:08:11;;;;;;;6.83;2.30;;;;;;;8.26;92.13;99621.78;5049196;28;20746;-85
2022/11/25 08:10:39;;;;;;;9.05;2.97;;;;;;;8.36;92.07;99625.72;5049633;28;20270;-86
2022/11/25 08:13:05;;;;;;;12.88;2.90;;;;;;;8.47;91.38;99627.47;5048963;28;20149;-87
2022/11/25 08:15:31;;;;;;;6.38;2.22;;;;;;;8.44;91.10;99636.09;5049778;28;20534;-86
2022/11/25 08:17:56;;;;;;;9.95;4.03;;;;;;;8.46;91.26;99625.78;5049153;28;20064;-85
2022/11/25 08:20:22;;;;;;;7.27;2.53;;;;;;;8.53;90.84;99637.31;5049068;28;20251;-85
2022/11/25 08:22:47;;;;;;;9.95;3.15;;;;;;;8.56;90.84;99640.59;5049023;28;20277;-86
2022/11/25 08:25:12;;;;;;;9.60;2.25;;;;;;;8.50;91.18;99643.25;5049397;28;20063;-87
2022/11/25 08:27:37;;;;;;;4.93;2.63;;;;;;;8.63;90.88;99643.97;5049922;28;20124;-86
2022/11/25 08:30:04;;;;;;;17.83;3.97;;;;;;;8.73;90.14;99654.94;5046538;28;20196;-86
2022/11/25 08:32:29;;;;;;;10.48;2.70;;;;;;;8.92;89.62;99657.31;5042560;28;20036;-85
2022/11/25 08:34:55;;;;;;;6.18;2.63;;;;;;;8.90;89.88;99656.75;5042242;28;20037;-86
2022/11/25 08:37:21;;;;;;;5.18;2.40;;;;;;;8.96;89.31;99661.19;5053170;28;20025;-86
2022/11/25 08:39:48;;;;;;;8.50;3.10;;;;;;;9.01;89.08;99665.03;5052389;28;20097;-88
2022/11/25 08:42:13;;;;;;;7.20;2.05;;;;;;;9.07;88.46;99666.72;5052640;28;20060;-86
2022/11/25 08:44:39;;;;;;;9.30;2.65;;;;;;;9.08;88.37;99673.78;5047423;28;20510;-85
2022/11/25 08:47:04;;;;;;;12.18;2.83;;;;;;;9.27;87.92;99673.41;5053040;28;20033;-87
2022/11/25 08:49:30;;;;;;;5.15;2.28;;;;;;;9.33;88.34;99675.13;5052399;28;20040;-87
2022/11/25 08:51:55;;;;;;;7.97;2.58;;;;;;;9.30;88.22;99675.63;5052862;28;20028;-84
2022/11/25 08:54:20;;;;;;;12.60;4.90;;;;;;;9.06;89.64;99679.50;5052472;28;20021;-84
2022/11/25 08:56:45;;;;;;;9.57;2.78;;;;;;;9.05;89.49;99679.75;5052514;28;20711;-87
2022/11/25 08:59:12;;;;;;;10.33;3.83;;;;;;;9.17;89.17;99674.94;5052323;28;20044;-86
2022/11/25 09:01:37;;;;;;;5.35;2.20;;;;;;;9.36;88.65;99679.22;5051872;28;20262;-86
2022/11/25 09:04:02;;;;;;;10.07;3.22;;;;;;;9.22;88.88;99675.00;5050852;28;20044;-86
2022/11/25 09:06:28;;;;;;;7.07;2.37;;;;;;;9.22;89.00;99674.19;5052735;28;20060;-87
2022/11/25 09:08:55;;;;;;;4.95;2.53;;;;;;;9.08;89.50;99685.50;5052439;28;20262;-87
2022/11/25 09:11:20;;;;;;;9.18;2.60;;;;;;;9.06;89.26;99682.22;5051385;28;20037;-88
2022/11/25 09:13:46;;;;;;;8.35;2.63;;;;;;;9.05;89.14;99683.28;5049892;28;20482;-86
2022/11/25 09:16:11;;;;;;;5.57;2.60;;;;;;;8.86;90.09;99693.69;5051793;28;20498;-88
2022/11/25 09:18:36;;;;;;;9.60;2.70;;;;;;;8.96;90.66;99695.69;5052220;28;20249;-83
2022/11/25 09:21:09;;;;;;;6.07;2.10;;;;;;;9.22;90.00;99691.34;5052058;28;20064;-88
2022/11/25 09:23:34;;;;;;;12.13;3.20;;;;;;;9.20;90.05;99687.22;5052535;28;20101;-84
2022/11/25 09:25:59;;;;;;;6.38;2.38;;;;;;;9.13;89.94;99703.78;5051575;28;20064;-86
2022/11/25 09:28:25;;;;;;;6.50;2.67;;;;;;;9.18;89.80;99695.66;5051984;28;20101;-88
2022/11/25 09:30:51;;;;;;;8.13;3.40;;;;;;;9.21;89.89;99700.56;5052747;28;20029;-87
2022/11/25 09:33:17;;;;;;;11.05;3.67;;;;;;;9.09;89.52;99699.91;5041455;28;20276;-85
2022/11/25 09:35:43;;;;;;;28.40;4.55;;;;;;;9.09;89.61;99718.97;5032455;28;20387;-88
2022/11/25 09:38:08;;;;;;;13.15;2.55;;;;;;;9.10;89.69;99721.41;5032051;28;20235;-87
2022/11/25 09:40:49;;;;;;;5.10;2.92;;;;;;;9.22;88.90;99718.53;5031810;28;20167;-84
2022/11/25 09:46:44;;;;;;;;;;;;;;;9.42;88.99;99716.25;5038486;28;20579;-80
2022/11/25 09:49:42;;;;;;;6.93;2.22;;;;;;;9.52;88.77;99731.88;5050290;28;20354;-88
2022/11/25 09:53:05;;;;;;;7.72;1.75;;;;;;;9.41;88.19;99742.66;5033712;28;20041;-84
2022/11/25 09:55:38;;;;;;;9.18;2.30;;;;;;;9.53;87.94;99741.66;4991021;28;20038;-92
2022/11/25 09:58:21;;;;;;;10.80;2.33;;;;;;;9.34;88.00;99739.31;4991854;28;20038;-95
2022/11/25 10:00:49;;;;;;;8.68;3.05;;;;;;;9.31;88.08;99750.72;5021207;28;20060;-89
2022/11/25 10:03:39;;;;;;;8.18;1.85;;;;;;;9.48;87.85;99749.81;5047913;28;20033;-88
2022/11/25 10:06:18;;;;;;;11.57;2.85;;;;;;;9.36;87.76;99748.03;5052750;28;20039;-90
2022/11/25 10:08:48;;;;;;;6.82;2.60;;;;;;;9.40;87.65;99754.63;5044212;28;20022;-92
2022/11/25 10:11:24;;;;;;;37.45;7.20;;;;;;;9.48;87.34;99747.09;5035768;28;20033;-87
2022/11/25 10:13:59;;;;;;;7.20;1.98;;;;;;;9.44;87.23;99746.75;5046952;28;20494;-90
2022/11/25 10:16:30;;;;;;;12.80;2.33;;;;;;;9.52;86.89;99754.44;5052557;28;20375;-88
2022/11/25 10:19:20;;;;;;;22.38;3.70;;;;;;;9.35;86.70;99760.03;5051800;28;20094;-87
2022/11/25 10:21:46;;;;;;;10.10;2.55;;;;;;;9.50;86.48;99766.69;5009981;28;20045;-92
2022/11/25 10:24:14;;;;;;;7.85;2.97;;;;;;;9.56;87.10;99766.47;5032864;28;20095;-87
2022/11/25 10:26:42;;;;;;;12.13;2.92;;;;;;;9.73;86.29;99768.25;5031731;28;20053;-86
2022/11/25 10:29:13;;;;;;;7.78;2.47;;;;;;;9.79;85.65;99763.66;5031503;28;20025;-89
2022/11/25 10:31:42;;;;;;;8.10;2.25;;;;;;;9.78;85.57;99778.38;5031304;28;20033;-90
2022/11/25 10:34:22;;;;;;;9.07;2.40;;;;;;;9.86;85.64;99780.63;5048281;28;20083;-89
2022/11/25 10:36:50;;;;;;;4.57;2.42;;;;;;;9.90;85.31;99784.47;5051318;28;20029;-89
2022/11/25 10:39:26;;;;;;;7.38;2.53;;;;;;;9.84;85.41;99788.25;5045347;28;20467;-89
2022/11/25 10:42:00;;;;;;;7.97;2.92;;;;;;;9.88;85.42;99792.09;5051297;28;20067;-88
2022/11/25 10:44:27;;;;;;;;;;;;;;;9.95;84.22;99794.56;5051026;28;20041;-88
2022/11/25 10:47:14;;;;;;;8.90;2.95;;;;;;;9.98;84.58;99796.78;5049378;28;20082;-89
2022/11/25 10:50:04;;;;;;;7.30;3.63;;;;;;;10.05;84.71;99793.81;5049931;28;20035;-87
2022/11/25 10:52:37;;;;;;;5.88;2.78;;;;;;;10.12;84.54;99799.06;5049032;28;20029;-88
2022/11/25 10:55:16;;;;;;;5.35;2.28;;;;;;;10.12;84.91;99794.44;5049198;28;20131;-88
2022/11/25 10:57:42;;;;;;;9.82;3.22;;;;;;;10.03;85.22;99801.44;5050974;28;20025;-87
2022/11/25 11:00:22;;;;;;;9.45;2.85;;;;;;;10.06;84.49;99811.84;5049472;28;20113;-88
2022/11/25 11:02:48;;;;;;;8.48;2.72;;;;;;;9.96;84.50;99800.84;5036068;28;20040;-92
2022/11/25 11:05:21;;;;;;;9.43;4.37;;;;;;;10.05;84.22;99804.72;5032175;28;20414;-88
2022/11/25 11:07:46;;;;;;;7.07;2.33;;;;;;;10.06;84.63;99800.09;5030731;28;20269;-87
2022/11/25 11:10:14;;;;;;;7.22;2.10;;;;;;;10.04;84.35;99803.09;5030840;28;20080;-89
2022/11/25 11:13:00;;;;;;;10.25;3.47;;;;;;;9.93;84.56;99805.72;5035434;28;20095;-86
2022/11/25 11:15:26;;;;;;;9.23;3.63;;;;;;;9.92;84.04;99812.28;5050143;28;20029;-87
2022/11/25 11:17:54;;;;;;;5.37;2.87;;;;;;;9.97;84.47;99818.81;5050892;28;20116;-87
2022/11/25 11:20:32;;;;;;;7.32;2.55;;;;;;;9.96;84.62;99814.47;5040164;28;20267;-88
2022/11/25 11:23:08;;;;;;;5.88;3.30;;;;;;;9.93;85.04;99819.34;5037743;28;20029;-87
2022/11/25 11:25:38;;;;;;;7.25;2.75;;;;;;;10.04;84.50;99819.44;5051896;28;20095;-87
2022/11/25 11:28:35;;;;;;;11.07;5.00;;;;;;;10.13;84.45;99831.50;5048876;28;20122;-87
2022/11/25 11:31:06;;;;;;;7.13;3.33;;;;;;;10.15;84.49;99829.31;5050571;28;20482;-87
2022/11/25 11:33:47;;;;;;;7.30;3.63;;;;;;;10.02;84.51;99821.59;5049772;28;20037;-87
2022/11/25 11:36:46;;;;;;;13.30;3.92;;;;;;;9.99;84.45;99830.28;5050476;28;20041;-88
2022/11/25 11:40:03;;;;;;;7.80;3.75;;;;;;;10.21;84.08;99832.91;5035936;28;20040;-87
2022/11/25 11:42:52;;;;;;;8.77;3.63;;;;;;;10.18;83.70;99835.34;5026083;28;20055;-87
2022/11/25 11:45:24;;;;;;;11.15;4.28;;;;;;;10.12;84.05;99834.47;5049102;28;20090;-87
2022/11/25 11:48:07;;;;;;;9.25;3.15;;;;;;;10.19;84.40;99839.72;5048501;28;20048;-88
2022/11/25 11:50:43;;;;;;;8.98;4.47;;;;;;;10.27;83.82;99839.25;5048871;28;20043;-87
2022/11/25 11:53:19;;;;;;;9.15;2.55;;;;;;;10.24;83.99;99835.13;5047431;28;20124;-88
2022/11/25 11:55:44;;;;;;;5.88;2.63;;;;;;;10.26;83.78;99835.69;5048854;28;20474;-87
2022/11/25 11:58:43;;;;;;;12.60;3.28;;;;;;;10.26;83.73;99838.41;5049428;28;20036;-88